sensor_id;sensor_type;location;lat;lon;timestamp;P1;durP1;ratioP1;P2;durP2;ratioP2
7475;SDS011;3779;49.216;8.650;2022-08-01T00:02:00;2.40;;;2.20;;
7475;SDS011;3779;49.216;8.650;2022-08-01T00:04:46;3.42;;;2.28;;
7475;SDS011;3779;49.216;8.650;2022-08-01T00:07:32;3.53;;;2.20;;
7475;SDS011;3779;49.216;8.650;2022-08-01T00:10:19;4.15;;;2.85;;
7475;SDS011;3779;49.216;8.650;2022-08-01T00:13:05;4.10;;;2.60;;
7475;SDS011;3779;49.216;8.650;2022-08-01T00:15:51;4.85;;;2.50;;
7475;SDS011;3779;49.216;8.650;2022-08-01T00:18:37;3.75;;;2.30;;
7475;SDS011;3779;49.216;8.650;2022-08-01T00:21:22;2.50;;;2.30;;
7475;SDS011;3779;49.216;8.650;2022-08-01T00:24:08;2.30;;;2.10;;
7475;SDS011;3779;49.216;8.650;2022-08-01T00:26:54;2.50;;;2.28;;
7475;SDS011;3779;49.216;8.650;2022-08-01T00:29:40;5.15;;;2.30;;
7475;SDS011;3779;49.216;8.650;2022-08-01T00:32:26;4.63;;;2.60;;
7475;SDS011;3779;49.216;8.650;2022-08-01T00:35:12;2.40;;;2.20;;
7475;SDS011;3779;49.216;8.650;2022-08-01T00:37:58;3.60;;;2.17;;
7475;SDS011;3779;49.216;8.650;2022-08-01T00:40:44;2.80;;;2.40;;
7475;SDS011;3779;49.216;8.650;2022-08-01T00:43:30;3.38;;;2.17;;
7475;SDS011;3779;49.216;8.650;2022-08-01T00:46:16;2.65;;;2.15;;
7475;SDS011;3779;49.216;8.650;2022-08-01T00:49:02;4.82;;;2.60;;
7475;SDS011;3779;49.216;8.650;2022-08-01T00:51:48;2.33;;;2.13;;
7475;SDS011;3779;49.216;8.650;2022-08-01T00:54:34;3.83;;;2.33;;
7475;SDS011;3779;49.216;8.650;2022-08-01T00:57:20;2.20;;;2.00;;
7475;SDS011;3779;49.216;8.650;2022-08-01T01:00:06;3.25;;;2.20;;
7475;SDS011;3779;49.216;8.650;2022-08-01T01:02:53;9.02;;;2.80;;
7475;SDS011;3779;49.216;8.650;2022-08-01T01:05:45;2.50;;;2.30;;
7475;SDS011;3779;49.216;8.650;2022-08-01T01:11:59;4.40;;;2.53;;
7475;SDS011;3779;49.216;8.650;2022-08-01T01:15:15;2.70;;;2.50;;
7475;SDS011;3779;49.216;8.650;2022-08-01T01:18:12;3.38;;;2.38;;
7475;SDS011;3779;49.216;8.650;2022-08-01T01:30:09;2.60;;;2.40;;
7475;SDS011;3779;49.216;8.650;2022-08-01T01:32:57;2.78;;;2.58;;
7475;SDS011;3779;49.216;8.650;2022-08-01T01:35:46;2.50;;;2.30;;
7475;SDS011;3779;49.216;8.650;2022-08-01T01:38:38;2.88;;;2.60;;
7475;SDS011;3779;49.216;8.650;2022-08-01T01:41:27;2.97;;;2.67;;
7475;SDS011;3779;49.216;8.650;2022-08-01T01:44:14;4.78;;;2.25;;
7475;SDS011;3779;49.216;8.650;2022-08-01T01:47:02;3.80;;;2.42;;
7475;SDS011;3779;49.216;8.650;2022-08-01T01:49:49;3.38;;;2.42;;
7475;SDS011;3779;49.216;8.650;2022-08-01T01:52:37;3.00;;;2.70;;
7475;SDS011;3779;49.216;8.650;2022-08-01T01:55:25;2.63;;;2.42;;
7475;SDS011;3779;49.216;8.650;2022-08-01T01:58:12;3.30;;;2.28;;
7475;SDS011;3779;49.216;8.650;2022-08-01T02:00:59;2.92;;;2.40;;
7475;SDS011;3779;49.216;8.650;2022-08-01T02:03:47;2.63;;;2.42;;
7475;SDS011;3779;49.216;8.650;2022-08-01T02:06:34;4.18;;;2.55;;
7475;SDS011;3779;49.216;8.650;2022-08-01T02:09:21;5.53;;;2.38;;
7475;SDS011;3779;49.216;8.650;2022-08-01T02:12:10;2.50;;;2.40;;
7475;SDS011;3779;49.216;8.650;2022-08-01T02:14:58;2.90;;;2.30;;
7475;SDS011;3779;49.216;8.650;2022-08-01T02:17:46;4.78;;;2.78;;
7475;SDS011;3779;49.216;8.650;2022-08-01T02:20:34;2.50;;;2.30;;
7475;SDS011;3779;49.216;8.650;2022-08-01T02:23:23;3.65;;;2.97;;
7475;SDS011;3779;49.216;8.650;2022-08-01T02:26:14;3.05;;;2.75;;
7475;SDS011;3779;49.216;8.650;2022-08-01T02:29:04;5.05;;;2.70;;
7475;SDS011;3779;49.216;8.650;2022-08-01T02:31:53;4.03;;;2.60;;
7475;SDS011;3779;49.216;8.650;2022-08-01T02:34:40;2.85;;;2.65;;
7475;SDS011;3779;49.216;8.650;2022-08-01T02:37:29;3.05;;;2.80;;
7475;SDS011;3779;49.216;8.650;2022-08-01T02:40:18;2.72;;;2.47;;
7475;SDS011;3779;49.216;8.650;2022-08-01T02:43:05;4.05;;;2.63;;
7475;SDS011;3779;49.216;8.650;2022-08-01T02:45:57;2.95;;;2.60;;
7475;SDS011;3779;49.216;8.650;2022-08-01T02:48:46;3.50;;;2.60;;
7475;SDS011;3779;49.216;8.650;2022-08-01T02:51:35;4.63;;;2.90;;
7475;SDS011;3779;49.216;8.650;2022-08-01T02:54:22;2.60;;;2.40;;
7475;SDS011;3779;49.216;8.650;2022-08-01T02:57:11;2.80;;;2.50;;
7475;SDS011;3779;49.216;8.650;2022-08-01T02:59:58;2.92;;;2.72;;
7475;SDS011;3779;49.216;8.650;2022-08-01T03:02:44;2.65;;;2.45;;
7475;SDS011;3779;49.216;8.650;2022-08-01T03:05:33;2.70;;;2.50;;
7475;SDS011;3779;49.216;8.650;2022-08-01T03:08:20;3.05;;;2.60;;
7475;SDS011;3779;49.216;8.650;2022-08-01T03:11:08;2.80;;;2.60;;
7475;SDS011;3779;49.216;8.650;2022-08-01T03:13:59;2.78;;;2.58;;
7475;SDS011;3779;49.216;8.650;2022-08-01T03:16:47;4.13;;;2.72;;
7475;SDS011;3779;49.216;8.650;2022-08-01T03:19:35;3.45;;;2.47;;
7475;SDS011;3779;49.216;8.650;2022-08-01T03:22:23;3.00;;;2.80;;
7475;SDS011;3779;49.216;8.650;2022-08-01T03:25:11;2.97;;;2.67;;
7475;SDS011;3779;49.216;8.650;2022-08-01T03:28:02;3.17;;;2.88;;
7475;SDS011;3779;49.216;8.650;2022-08-01T03:30:49;2.67;;;2.45;;
7475;SDS011;3779;49.216;8.650;2022-08-01T03:33:36;3.92;;;2.97;;
7475;SDS011;3779;49.216;8.650;2022-08-01T03:36:26;3.85;;;2.70;;
7475;SDS011;3779;49.216;8.650;2022-08-01T03:39:14;5.40;;;2.83;;
7475;SDS011;3779;49.216;8.650;2022-08-01T03:42:04;4.43;;;2.75;;
7475;SDS011;3779;49.216;8.650;2022-08-01T03:44:57;3.53;;;2.80;;
7475;SDS011;3779;49.216;8.650;2022-08-01T03:47:48;4.07;;;2.70;;
7475;SDS011;3779;49.216;8.650;2022-08-01T03:50:37;3.10;;;2.30;;
7475;SDS011;3779;49.216;8.650;2022-08-01T03:53:28;2.70;;;2.50;;
7475;SDS011;3779;49.216;8.650;2022-08-01T03:56:18;2.60;;;2.40;;
7475;SDS011;3779;49.216;8.650;2022-08-01T03:59:05;3.15;;;2.85;;
7475;SDS011;3779;49.216;8.650;2022-08-01T04:01:51;2.97;;;2.50;;
7475;SDS011;3779;49.216;8.650;2022-08-01T04:04:37;4.05;;;2.60;;
7475;SDS011;3779;49.216;8.650;2022-08-01T04:07:24;2.65;;;2.45;;
7475;SDS011;3779;49.216;8.650;2022-08-01T04:10:11;4.30;;;2.63;;
7475;SDS011;3779;49.216;8.650;2022-08-01T04:12:58;2.70;;;2.50;;
7475;SDS011;3779;49.216;8.650;2022-08-01T04:15:44;2.95;;;2.65;;
7475;SDS011;3779;49.216;8.650;2022-08-01T04:18:30;4.82;;;2.83;;
7475;SDS011;3779;49.216;8.650;2022-08-01T04:21:17;2.78;;;2.58;;
7475;SDS011;3779;49.216;8.650;2022-08-01T04:24:09;5.85;;;2.80;;
7475;SDS011;3779;49.216;8.650;2022-08-01T04:26:59;3.33;;;2.65;;
7475;SDS011;3779;49.216;8.650;2022-08-01T04:29:46;3.35;;;2.60;;
7475;SDS011;3779;49.216;8.650;2022-08-01T04:32:38;4.45;;;2.65;;
7475;SDS011;3779;49.216;8.650;2022-08-01T04:35:27;3.35;;;2.53;;
7475;SDS011;3779;49.216;8.650;2022-08-01T04:38:17;2.90;;;2.70;;
7475;SDS011;3779;49.216;8.650;2022-08-01T04:41:06;4.07;;;2.92;;
7475;SDS011;3779;49.216;8.650;2022-08-01T04:43:54;2.88;;;2.60;;
7475;SDS011;3779;49.216;8.650;2022-08-01T04:46:44;3.35;;;2.58;;
7475;SDS011;3779;49.216;8.650;2022-08-01T04:49:34;3.10;;;2.78;;
7475;SDS011;3779;49.216;8.650;2022-08-01T04:52:20;2.80;;;2.60;;
7475;SDS011;3779;49.216;8.650;2022-08-01T04:55:06;5.10;;;2.80;;
7475;SDS011;3779;49.216;8.650;2022-08-01T04:57:52;3.92;;;2.50;;
7475;SDS011;3779;49.216;8.650;2022-08-01T05:00:38;2.83;;;2.50;;
7475;SDS011;3779;49.216;8.650;2022-08-01T05:03:24;2.65;;;2.45;;
7475;SDS011;3779;49.216;8.650;2022-08-01T05:06:10;4.90;;;2.88;;
7475;SDS011;3779;49.216;8.650;2022-08-01T05:08:56;3.53;;;2.53;;
7475;SDS011;3779;49.216;8.650;2022-08-01T05:11:41;3.88;;;2.83;;
7475;SDS011;3779;49.216;8.650;2022-08-01T05:14:28;3.60;;;3.00;;
7475;SDS011;3779;49.216;8.650;2022-08-01T05:17:16;3.30;;;2.70;;
7475;SDS011;3779;49.216;8.650;2022-08-01T05:20:04;3.03;;;2.72;;
7475;SDS011;3779;49.216;8.650;2022-08-01T05:22:51;2.88;;;2.67;;
7475;SDS011;3779;49.216;8.650;2022-08-01T05:25:37;3.00;;;2.70;;
7475;SDS011;3779;49.216;8.650;2022-08-01T05:28:24;5.03;;;2.83;;
7475;SDS011;3779;49.216;8.650;2022-08-01T05:31:09;2.70;;;2.50;;
7475;SDS011;3779;49.216;8.650;2022-08-01T05:33:55;2.95;;;2.75;;
7475;SDS011;3779;49.216;8.650;2022-08-01T05:36:41;4.50;;;2.80;;
7475;SDS011;3779;49.216;8.650;2022-08-01T05:39:27;4.30;;;3.13;;
7475;SDS011;3779;49.216;8.650;2022-08-01T05:42:13;2.90;;;2.70;;
7475;SDS011;3779;49.216;8.650;2022-08-01T05:44:59;4.55;;;2.63;;
7475;SDS011;3779;49.216;8.650;2022-08-01T05:47:45;4.82;;;2.78;;
7475;SDS011;3779;49.216;8.650;2022-08-01T05:50:32;3.88;;;3.00;;
7475;SDS011;3779;49.216;8.650;2022-08-01T05:53:18;4.43;;;2.55;;
7475;SDS011;3779;49.216;8.650;2022-08-01T05:56:04;3.70;;;2.53;;
7475;SDS011;3779;49.216;8.650;2022-08-01T05:58:50;3.45;;;2.58;;
7475;SDS011;3779;49.216;8.650;2022-08-01T06:01:36;2.55;;;2.30;;
7475;SDS011;3779;49.216;8.650;2022-08-01T06:04:22;4.00;;;2.40;;
7475;SDS011;3779;49.216;8.650;2022-08-01T06:07:08;3.65;;;2.50;;
7475;SDS011;3779;49.216;8.650;2022-08-01T06:09:53;5.32;;;2.72;;
7475;SDS011;3779;49.216;8.650;2022-08-01T06:12:39;4.63;;;2.60;;
7475;SDS011;3779;49.216;8.650;2022-08-01T06:15:25;3.33;;;2.60;;
7475;SDS011;3779;49.216;8.650;2022-08-01T06:18:11;5.10;;;2.50;;
7475;SDS011;3779;49.216;8.650;2022-08-01T06:20:58;3.58;;;2.22;;
7475;SDS011;3779;49.216;8.650;2022-08-01T06:23:43;2.47;;;2.25;;
7475;SDS011;3779;49.216;8.650;2022-08-01T06:26:30;2.50;;;2.30;;
7475;SDS011;3779;49.216;8.650;2022-08-01T06:29:16;2.53;;;2.33;;
7475;SDS011;3779;49.216;8.650;2022-08-01T06:32:02;4.55;;;2.17;;
7475;SDS011;3779;49.216;8.650;2022-08-01T06:34:48;2.90;;;2.00;;
7475;SDS011;3779;49.216;8.650;2022-08-01T06:37:34;2.72;;;1.85;;
7475;SDS011;3779;49.216;8.650;2022-08-01T06:40:20;2.50;;;1.65;;
7475;SDS011;3779;49.216;8.650;2022-08-01T06:43:05;3.95;;;1.98;;
7475;SDS011;3779;49.216;8.650;2022-08-01T06:45:51;3.80;;;1.90;;
7475;SDS011;3779;49.216;8.650;2022-08-01T06:48:37;2.42;;;1.80;;
7475;SDS011;3779;49.216;8.650;2022-08-01T06:51:24;2.20;;;2.00;;
7475;SDS011;3779;49.216;8.650;2022-08-01T06:54:10;1.88;;;1.63;;
7475;SDS011;3779;49.216;8.650;2022-08-01T06:56:56;2.25;;;2.05;;
7475;SDS011;3779;49.216;8.650;2022-08-01T06:59:42;1.88;;;1.77;;
7475;SDS011;3779;49.216;8.650;2022-08-01T07:02:27;2.38;;;1.83;;
7475;SDS011;3779;49.216;8.650;2022-08-01T07:05:13;2.00;;;1.77;;
7475;SDS011;3779;49.216;8.650;2022-08-01T07:07:59;1.63;;;1.52;;
7475;SDS011;3779;49.216;8.650;2022-08-01T07:10:45;1.35;;;1.10;;
7475;SDS011;3779;49.216;8.650;2022-08-01T07:13:31;1.42;;;1.20;;
7475;SDS011;3779;49.216;8.650;2022-08-01T07:16:17;2.13;;;1.40;;
7475;SDS011;3779;49.216;8.650;2022-08-01T07:19:03;2.25;;;1.10;;
7475;SDS011;3779;49.216;8.650;2022-08-01T07:21:49;2.28;;;1.10;;
7475;SDS011;3779;49.216;8.650;2022-08-01T07:24:35;2.75;;;1.30;;
7475;SDS011;3779;49.216;8.650;2022-08-01T07:27:21;3.28;;;1.40;;
7475;SDS011;3779;49.216;8.650;2022-08-01T07:30:07;2.55;;;1.10;;
7475;SDS011;3779;49.216;8.650;2022-08-01T07:32:53;1.60;;;1.50;;
7475;SDS011;3779;49.216;8.650;2022-08-01T07:35:39;1.20;;;1.10;;
7475;SDS011;3779;49.216;8.650;2022-08-01T07:38:25;1.60;;;1.50;;
7475;SDS011;3779;49.216;8.650;2022-08-01T07:41:11;3.13;;;1.30;;
7475;SDS011;3779;49.216;8.650;2022-08-01T07:43:56;1.40;;;1.30;;
7475;SDS011;3779;49.216;8.650;2022-08-01T07:46:42;3.00;;;1.60;;
7475;SDS011;3779;49.216;8.650;2022-08-01T07:49:28;1.48;;;1.30;;
7475;SDS011;3779;49.216;8.650;2022-08-01T07:52:14;2.33;;;1.50;;
7475;SDS011;3779;49.216;8.650;2022-08-01T07:55:01;1.40;;;1.30;;
7475;SDS011;3779;49.216;8.650;2022-08-01T07:57:47;1.70;;;1.40;;
7475;SDS011;3779;49.216;8.650;2022-08-01T08:00:33;4.25;;;1.40;;
7475;SDS011;3779;49.216;8.650;2022-08-01T08:03:19;2.53;;;1.50;;
7475;SDS011;3779;49.216;8.650;2022-08-01T08:06:05;1.50;;;1.40;;
7475;SDS011;3779;49.216;8.650;2022-08-01T08:08:50;1.38;;;1.27;;
7475;SDS011;3779;49.216;8.650;2022-08-01T08:11:38;1.92;;;1.50;;
7475;SDS011;3779;49.216;8.650;2022-08-01T08:14:24;2.97;;;1.52;;
7475;SDS011;3779;49.216;8.650;2022-08-01T08:17:10;1.30;;;1.20;;
7475;SDS011;3779;49.216;8.650;2022-08-01T08:19:56;1.40;;;1.30;;
7475;SDS011;3779;49.216;8.650;2022-08-01T08:22:41;2.08;;;1.38;;
7475;SDS011;3779;49.216;8.650;2022-08-01T08:25:29;1.50;;;1.40;;
7475;SDS011;3779;49.216;8.650;2022-08-01T08:28:15;1.52;;;1.40;;
7475;SDS011;3779;49.216;8.650;2022-08-01T08:31:01;1.52;;;1.30;;
7475;SDS011;3779;49.216;8.650;2022-08-01T08:33:46;1.40;;;1.30;;
7475;SDS011;3779;49.216;8.650;2022-08-01T08:36:32;1.92;;;1.35;;
7475;SDS011;3779;49.216;8.650;2022-08-01T08:39:19;2.03;;;1.52;;
7475;SDS011;3779;49.216;8.650;2022-08-01T08:42:08;1.75;;;1.40;;
7475;SDS011;3779;49.216;8.650;2022-08-01T08:44:57;2.15;;;1.40;;
7475;SDS011;3779;49.216;8.650;2022-08-01T08:47:43;1.45;;;1.10;;
7475;SDS011;3779;49.216;8.650;2022-08-01T08:50:31;2.22;;;1.45;;
7475;SDS011;3779;49.216;8.650;2022-08-01T08:53:18;2.22;;;1.40;;
7475;SDS011;3779;49.216;8.650;2022-08-01T08:56:04;2.83;;;1.25;;
7475;SDS011;3779;49.216;8.650;2022-08-01T08:58:53;2.53;;;1.38;;
7475;SDS011;3779;49.216;8.650;2022-08-01T09:01:40;4.28;;;1.55;;
7475;SDS011;3779;49.216;8.650;2022-08-01T09:04:26;2.95;;;1.23;;
7475;SDS011;3779;49.216;8.650;2022-08-01T09:07:12;1.33;;;1.23;;
7475;SDS011;3779;49.216;8.650;2022-08-01T09:09:59;1.20;;;1.10;;
7475;SDS011;3779;49.216;8.650;2022-08-01T09:15:57;1.30;;;1.05;;
7475;SDS011;3779;49.216;8.650;2022-08-01T09:18:44;2.60;;;1.38;;
7475;SDS011;3779;49.216;8.650;2022-08-01T09:21:30;1.35;;;1.05;;
7475;SDS011;3779;49.216;8.650;2022-08-01T09:24:15;0.95;;;0.95;;
7475;SDS011;3779;49.216;8.650;2022-08-01T09:27:14;1.33;;;1.23;;
7475;SDS011;3779;49.216;8.650;2022-08-01T09:30:14;2.13;;;1.10;;
7475;SDS011;3779;49.216;8.650;2022-08-01T09:33:02;4.03;;;1.20;;
7475;SDS011;3779;49.216;8.650;2022-08-01T09:35:55;1.00;;;1.00;;
7475;SDS011;3779;49.216;8.650;2022-08-01T09:38:42;1.00;;;1.00;;
7475;SDS011;3779;49.216;8.650;2022-08-01T09:41:31;1.48;;;1.20;;
7475;SDS011;3779;49.216;8.650;2022-08-01T09:44:17;1.00;;;1.00;;
7475;SDS011;3779;49.216;8.650;2022-08-01T09:47:05;1.95;;;1.30;;
7475;SDS011;3779;49.216;8.650;2022-08-01T09:49:54;1.05;;;1.05;;
7475;SDS011;3779;49.216;8.650;2022-08-01T09:52:41;1.88;;;1.20;;
7475;SDS011;3779;49.216;8.650;2022-08-01T09:55:39;0.90;;;0.90;;
7475;SDS011;3779;49.216;8.650;2022-08-01T09:58:26;1.00;;;1.00;;
7475;SDS011;3779;49.216;8.650;2022-08-01T10:01:12;1.05;;;0.95;;
7475;SDS011;3779;49.216;8.650;2022-08-01T10:07:05;1.60;;;1.10;;
7475;SDS011;3779;49.216;8.650;2022-08-01T10:09:52;1.08;;;0.90;;
7475;SDS011;3779;49.216;8.650;2022-08-01T10:12:38;1.40;;;1.30;;
7475;SDS011;3779;49.216;8.650;2022-08-01T10:15:26;1.10;;;1.00;;
7475;SDS011;3779;49.216;8.650;2022-08-01T10:18:12;1.70;;;1.20;;
7475;SDS011;3779;49.216;8.650;2022-08-01T10:21:02;1.05;;;1.02;;
7475;SDS011;3779;49.216;8.650;2022-08-01T10:23:49;2.55;;;1.27;;
7475;SDS011;3779;49.216;8.650;2022-08-01T10:26:35;1.50;;;1.10;;
7475;SDS011;3779;49.216;8.650;2022-08-01T10:29:22;1.33;;;1.20;;
7475;SDS011;3779;49.216;8.650;2022-08-01T10:32:11;1.42;;;1.20;;
7475;SDS011;3779;49.216;8.650;2022-08-01T10:34:57;0.80;;;0.80;;
7475;SDS011;3779;49.216;8.650;2022-08-01T10:40:58;1.90;;;1.10;;
7475;SDS011;3779;49.216;8.650;2022-08-01T10:43:48;1.25;;;1.15;;
7475;SDS011;3779;49.216;8.650;2022-08-01T10:46:38;3.63;;;1.48;;
7475;SDS011;3779;49.216;8.650;2022-08-01T10:49:29;1.77;;;1.10;;
7475;SDS011;3779;49.216;8.650;2022-08-01T10:52:17;3.05;;;1.23;;
7475;SDS011;3779;49.216;8.650;2022-08-01T10:55:04;1.60;;;1.50;;
7475;SDS011;3779;49.216;8.650;2022-08-01T10:57:51;1.02;;;1.02;;
7475;SDS011;3779;49.216;8.650;2022-08-01T11:00:39;1.10;;;1.10;;
7475;SDS011;3779;49.216;8.650;2022-08-01T11:03:32;1.75;;;1.10;;
7475;SDS011;3779;49.216;8.650;2022-08-01T11:06:20;1.40;;;1.30;;
7475;SDS011;3779;49.216;8.650;2022-08-01T11:09:21;2.60;;;1.30;;
7475;SDS011;3779;49.216;8.650;2022-08-01T11:12:16;1.00;;;1.00;;
7475;SDS011;3779;49.216;8.650;2022-08-01T11:17:50;1.50;;;1.40;;
7475;SDS011;3779;49.216;8.650;2022-08-01T11:20:37;1.35;;;1.25;;
7475;SDS011;3779;49.216;8.650;2022-08-01T11:23:49;1.48;;;1.38;;
7475;SDS011;3779;49.216;8.650;2022-08-01T11:26:38;2.38;;;1.60;;
7475;SDS011;3779;49.216;8.650;2022-08-01T11:29:24;2.85;;;1.40;;
7475;SDS011;3779;49.216;8.650;2022-08-01T11:32:23;1.27;;;1.15;;
7475;SDS011;3779;49.216;8.650;2022-08-01T11:35:10;1.25;;;1.20;;
7475;SDS011;3779;49.216;8.650;2022-08-01T11:37:56;1.15;;;1.10;;
7475;SDS011;3779;49.216;8.650;2022-08-01T11:40:41;1.17;;;1.13;;
7475;SDS011;3779;49.216;8.650;2022-08-01T11:43:27;1.13;;;1.02;;
7475;SDS011;3779;49.216;8.650;2022-08-01T11:46:13;1.95;;;1.27;;
7475;SDS011;3779;49.216;8.650;2022-08-01T11:52:15;1.42;;;1.27;;
7475;SDS011;3779;49.216;8.650;2022-08-01T11:55:09;1.73;;;1.40;;
7475;SDS011;3779;49.216;8.650;2022-08-01T11:58:05;1.13;;;1.02;;
7475;SDS011;3779;49.216;8.650;2022-08-01T12:00:53;1.48;;;1.38;;
7475;SDS011;3779;49.216;8.650;2022-08-01T12:03:39;1.27;;;1.08;;
7475;SDS011;3779;49.216;8.650;2022-08-01T12:06:26;1.30;;;1.20;;
7475;SDS011;3779;49.216;8.650;2022-08-01T12:09:17;2.80;;;1.48;;
7475;SDS011;3779;49.216;8.650;2022-08-01T12:12:07;3.50;;;1.42;;
7475;SDS011;3779;49.216;8.650;2022-08-01T12:14:54;1.20;;;1.10;;
7475;SDS011;3779;49.216;8.650;2022-08-01T12:17:45;1.10;;;1.05;;
7475;SDS011;3779;49.216;8.650;2022-08-01T12:20:50;1.13;;;1.13;;
7475;SDS011;3779;49.216;8.650;2022-08-01T12:23:36;1.58;;;1.17;;
7475;SDS011;3779;49.216;8.650;2022-08-01T12:26:38;1.45;;;1.10;;
7475;SDS011;3779;49.216;8.650;2022-08-01T12:29:37;1.58;;;0.90;;
7475;SDS011;3779;49.216;8.650;2022-08-01T12:35:13;1.25;;;1.00;;
7475;SDS011;3779;49.216;8.650;2022-08-01T12:38:02;1.23;;;1.10;;
7475;SDS011;3779;49.216;8.650;2022-08-01T12:40:58;1.23;;;1.13;;
7475;SDS011;3779;49.216;8.650;2022-08-01T12:43:44;0.90;;;0.90;;
7475;SDS011;3779;49.216;8.650;2022-08-01T12:46:30;1.20;;;1.10;;
7475;SDS011;3779;49.216;8.650;2022-08-01T12:49:16;1.58;;;1.00;;
7475;SDS011;3779;49.216;8.650;2022-08-01T12:52:03;3.50;;;1.40;;
7475;SDS011;3779;49.216;8.650;2022-08-01T12:58:11;1.83;;;1.13;;
7475;SDS011;3779;49.216;8.650;2022-08-01T13:01:03;1.30;;;1.00;;
7475;SDS011;3779;49.216;8.650;2022-08-01T13:03:57;1.33;;;1.10;;
7475;SDS011;3779;49.216;8.650;2022-08-01T13:06:52;1.20;;;1.20;;
7475;SDS011;3779;49.216;8.650;2022-08-01T13:09:48;1.30;;;1.20;;
7475;SDS011;3779;49.216;8.650;2022-08-01T13:12:37;0.93;;;0.93;;
7475;SDS011;3779;49.216;8.650;2022-08-01T13:15:26;2.83;;;0.90;;
7475;SDS011;3779;49.216;8.650;2022-08-01T13:18:23;0.90;;;0.90;;
7475;SDS011;3779;49.216;8.650;2022-08-01T13:21:18;3.08;;;1.20;;
7475;SDS011;3779;49.216;8.650;2022-08-01T13:26:59;0.98;;;0.98;;
7475;SDS011;3779;49.216;8.650;2022-08-01T13:29:48;1.58;;;1.10;;
7475;SDS011;3779;49.216;8.650;2022-08-01T13:32:38;0.88;;;0.82;;
7475;SDS011;3779;49.216;8.650;2022-08-01T13:35:24;0.93;;;0.93;;
7475;SDS011;3779;49.216;8.650;2022-08-01T13:38:10;0.93;;;0.90;;
7475;SDS011;3779;49.216;8.650;2022-08-01T13:40:59;1.45;;;1.13;;
7475;SDS011;3779;49.216;8.650;2022-08-01T13:43:45;1.23;;;1.13;;
7475;SDS011;3779;49.216;8.650;2022-08-01T13:46:31;1.70;;;0.95;;
7475;SDS011;3779;49.216;8.650;2022-08-01T13:49:18;1.85;;;1.15;;
7475;SDS011;3779;49.216;8.650;2022-08-01T13:52:04;1.05;;;0.85;;
7475;SDS011;3779;49.216;8.650;2022-08-01T13:54:51;2.72;;;1.20;;
7475;SDS011;3779;49.216;8.650;2022-08-01T13:57:37;2.00;;;1.40;;
7475;SDS011;3779;49.216;8.650;2022-08-01T14:00:23;1.08;;;1.08;;
7475;SDS011;3779;49.216;8.650;2022-08-01T14:03:08;1.08;;;1.08;;
7475;SDS011;3779;49.216;8.650;2022-08-01T14:05:55;1.25;;;1.15;;
7475;SDS011;3779;49.216;8.650;2022-08-01T14:08:42;0.82;;;0.82;;
7475;SDS011;3779;49.216;8.650;2022-08-01T14:11:28;0.82;;;0.82;;
7475;SDS011;3779;49.216;8.650;2022-08-01T14:14:14;0.90;;;0.90;;
7475;SDS011;3779;49.216;8.650;2022-08-01T14:17:00;2.10;;;0.90;;
7475;SDS011;3779;49.216;8.650;2022-08-01T14:19:47;1.05;;;0.90;;
7475;SDS011;3779;49.216;8.650;2022-08-01T14:22:33;1.67;;;0.93;;
7475;SDS011;3779;49.216;8.650;2022-08-01T14:25:19;0.98;;;0.98;;
7475;SDS011;3779;49.216;8.650;2022-08-01T14:28:05;1.20;;;1.10;;
7475;SDS011;3779;49.216;8.650;2022-08-01T14:30:51;1.30;;;1.20;;
7475;SDS011;3779;49.216;8.650;2022-08-01T14:33:37;1.08;;;1.08;;
7475;SDS011;3779;49.216;8.650;2022-08-01T14:36:23;0.98;;;0.93;;
7475;SDS011;3779;49.216;8.650;2022-08-01T14:39:08;1.13;;;1.02;;
7475;SDS011;3779;49.216;8.650;2022-08-01T14:41:54;1.02;;;1.02;;
7475;SDS011;3779;49.216;8.650;2022-08-01T14:44:40;1.00;;;1.00;;
7475;SDS011;3779;49.216;8.650;2022-08-01T14:47:26;1.10;;;1.00;;
7475;SDS011;3779;49.216;8.650;2022-08-01T14:50:13;0.82;;;0.82;;
7475;SDS011;3779;49.216;8.650;2022-08-01T14:53:00;0.80;;;0.80;;
7475;SDS011;3779;49.216;8.650;2022-08-01T14:55:45;1.90;;;1.00;;
7475;SDS011;3779;49.216;8.650;2022-08-01T14:58:32;0.80;;;0.80;;
7475;SDS011;3779;49.216;8.650;2022-08-01T15:01:18;0.80;;;0.80;;
7475;SDS011;3779;49.216;8.650;2022-08-01T15:04:04;1.63;;;0.90;;
7475;SDS011;3779;49.216;8.650;2022-08-01T15:06:50;0.90;;;0.90;;
7475;SDS011;3779;49.216;8.650;2022-08-01T15:09:36;0.80;;;0.80;;
7475;SDS011;3779;49.216;8.650;2022-08-01T15:12:22;0.80;;;0.80;;
7475;SDS011;3779;49.216;8.650;2022-08-01T15:15:07;0.98;;;0.85;;
7475;SDS011;3779;49.216;8.650;2022-08-01T15:17:54;0.80;;;0.80;;
7475;SDS011;3779;49.216;8.650;2022-08-01T15:20:40;1.25;;;1.10;;
7475;SDS011;3779;49.216;8.650;2022-08-01T15:23:26;0.80;;;0.80;;
7475;SDS011;3779;49.216;8.650;2022-08-01T15:26:11;0.93;;;0.93;;
7475;SDS011;3779;49.216;8.650;2022-08-01T15:28:58;0.82;;;0.82;;
7475;SDS011;3779;49.216;8.650;2022-08-01T15:31:44;0.90;;;0.90;;
7475;SDS011;3779;49.216;8.650;2022-08-01T15:34:30;1.88;;;1.00;;
7475;SDS011;3779;49.216;8.650;2022-08-01T15:37:18;1.10;;;0.70;;
7475;SDS011;3779;49.216;8.650;2022-08-01T15:40:04;1.02;;;0.93;;
7475;SDS011;3779;49.216;8.650;2022-08-01T15:42:50;2.92;;;0.90;;
7475;SDS011;3779;49.216;8.650;2022-08-01T15:45:37;1.88;;;0.80;;
7475;SDS011;3779;49.216;8.650;2022-08-01T15:48:23;0.77;;;0.77;;
7475;SDS011;3779;49.216;8.650;2022-08-01T15:51:09;1.08;;;0.90;;
7475;SDS011;3779;49.216;8.650;2022-08-01T15:53:54;1.15;;;1.05;;
7475;SDS011;3779;49.216;8.650;2022-08-01T15:56:41;1.38;;;0.95;;
7475;SDS011;3779;49.216;8.650;2022-08-01T15:59:27;0.80;;;0.80;;
7475;SDS011;3779;49.216;8.650;2022-08-01T16:02:14;0.90;;;0.90;;
7475;SDS011;3779;49.216;8.650;2022-08-01T16:05:00;2.38;;;1.20;;
7475;SDS011;3779;49.216;8.650;2022-08-01T16:07:45;0.70;;;0.70;;
7475;SDS011;3779;49.216;8.650;2022-08-01T16:10:32;2.28;;;1.10;;
7475;SDS011;3779;49.216;8.650;2022-08-01T16:13:17;0.88;;;0.88;;
7475;SDS011;3779;49.216;8.650;2022-08-01T16:16:03;1.10;;;1.00;;
7475;SDS011;3779;49.216;8.650;2022-08-01T16:18:51;0.80;;;0.80;;
7475;SDS011;3779;49.216;8.650;2022-08-01T16:21:38;0.73;;;0.73;;
7475;SDS011;3779;49.216;8.650;2022-08-01T16:24:24;0.68;;;0.68;;
7475;SDS011;3779;49.216;8.650;2022-08-01T16:27:13;0.68;;;0.68;;
7475;SDS011;3779;49.216;8.650;2022-08-01T16:29:59;1.00;;;0.90;;
7475;SDS011;3779;49.216;8.650;2022-08-01T16:32:45;0.90;;;0.90;;
7475;SDS011;3779;49.216;8.650;2022-08-01T16:35:31;1.55;;;0.77;;
7475;SDS011;3779;49.216;8.650;2022-08-01T16:38:16;0.70;;;0.70;;
7475;SDS011;3779;49.216;8.650;2022-08-01T16:41:04;0.80;;;0.80;;
7475;SDS011;3779;49.216;8.650;2022-08-01T16:43:50;0.60;;;0.60;;
7475;SDS011;3779;49.216;8.650;2022-08-01T16:46:35;0.77;;;0.77;;
7475;SDS011;3779;49.216;8.650;2022-08-01T16:49:21;0.80;;;0.75;;
7475;SDS011;3779;49.216;8.650;2022-08-01T16:52:07;2.13;;;0.80;;
7475;SDS011;3779;49.216;8.650;2022-08-01T16:54:53;0.85;;;0.85;;
7475;SDS011;3779;49.216;8.650;2022-08-01T16:57:41;0.70;;;0.70;;
7475;SDS011;3779;49.216;8.650;2022-08-01T17:00:27;0.93;;;0.93;;
7475;SDS011;3779;49.216;8.650;2022-08-01T17:03:13;1.17;;;0.70;;
7475;SDS011;3779;49.216;8.650;2022-08-01T17:05:59;2.13;;;1.00;;
7475;SDS011;3779;49.216;8.650;2022-08-01T17:13:15;1.15;;;1.05;;
7475;SDS011;3779;49.216;8.650;2022-08-01T17:16:01;0.90;;;0.90;;
7475;SDS011;3779;49.216;8.650;2022-08-01T17:18:52;0.80;;;0.80;;
7475;SDS011;3779;49.216;8.650;2022-08-01T17:21:39;0.98;;;0.88;;
7475;SDS011;3779;49.216;8.650;2022-08-01T18:59:57;0.80;;;0.80;;
7475;SDS011;3779;49.216;8.650;2022-08-01T19:02:43;2.90;;;1.10;;
7475;SDS011;3779;49.216;8.650;2022-08-01T19:05:29;2.03;;;1.10;;
7475;SDS011;3779;49.216;8.650;2022-08-01T19:08:15;2.63;;;0.90;;
7475;SDS011;3779;49.216;8.650;2022-08-01T19:11:01;3.72;;;0.90;;
7475;SDS011;3779;49.216;8.650;2022-08-01T19:13:48;2.63;;;1.00;;
7475;SDS011;3779;49.216;8.650;2022-08-01T19:16:34;3.33;;;0.90;;
7475;SDS011;3779;49.216;8.650;2022-08-01T19:19:20;0.90;;;0.90;;
7475;SDS011;3779;49.216;8.650;2022-08-01T19:22:06;1.85;;;1.00;;
7475;SDS011;3779;49.216;8.650;2022-08-01T19:24:51;1.15;;;0.90;;
7475;SDS011;3779;49.216;8.650;2022-08-01T19:27:37;2.08;;;1.10;;
7475;SDS011;3779;49.216;8.650;2022-08-01T19:30:29;1.35;;;1.10;;
7475;SDS011;3779;49.216;8.650;2022-08-01T19:33:18;1.52;;;1.08;;
7475;SDS011;3779;49.216;8.650;2022-08-01T19:36:04;1.23;;;0.90;;
7475;SDS011;3779;49.216;8.650;2022-08-01T19:38:52;2.20;;;0.98;;